• Join FlightAware (Why Join?)
  • Login
  • US Flag 
04:24AM EST


 

Airport Tracker/Info


-or-


 

Live Flight TrackerFlight Track Log ✈ FIN666 ✈ 14 Mar 2014 ✈ EKCH / CPH - EFHK / HEL

Flight Track Log - Related Links

Times and Time Zones

All times are in EDT time to prevent confusion due to time zone crossing. See the FIN666 flight status page for this flight to view local times or setup timezone preferences in your user account.

Time Position Orientation Groundspeed Altitude Reporting Facility
EDT Latitude Longitude Course Direction KTS MPH feet Rate Location/Type
08:37AM 55.9164 13.2747 49° Northeast  Level Estimated
08:38AM 55.9905 13.4309 50° Northeast  Level Estimated
08:39AM 56.0644 13.5877 50° Northeast  Level Estimated
08:40AM 56.1381 13.7451 50° Northeast  Level Estimated
08:41AM 56.2211 13.9235 50° Northeast  Level Estimated
08:42AM 56.3039 14.1027 50° Northeast  Level Estimated
08:43AM 56.3863 14.2826 50° Northeast  Level Estimated
08:44AM 56.4686 14.4634 50° Northeast  Level Estimated
08:45AM 56.5505 14.6449 51° Northeast  Level Estimated
08:46AM 56.6322 14.8272 51° Northeast  Level Estimated
08:47AM 56.7087 14.9992 51° Northeast  Level Estimated
08:48AM 56.7850 15.1719 51° Northeast  Level Estimated
08:49AM 56.8501 15.3205 51° Northeast  Level Estimated
08:50AM 56.9151 15.4696 51° Northeast  Level Estimated
08:51AM 56.9799 15.6192 51° Northeast  Level Estimated
08:52AM 57.0446 15.7693 52° Northeast  Level Estimated
08:53AM 57.1090 15.9199 52° Northeast  Level Estimated
08:54AM 57.1733 16.0711 52° Northeast  Level Estimated
08:55AM 57.2374 16.2228 52° Northeast  Level Estimated
08:56AM 57.3013 16.3750 52° Northeast  Level Estimated
08:57AM 57.3650 16.5278 52° Northeast  Level Estimated
08:58AM 57.4286 16.6811 52° Northeast  Level Estimated
08:59AM 57.4919 16.8349 52° Northeast  Level Estimated
09:00AM 57.5551 16.9893 53° Northeast  Level Estimated
09:01AM 57.6181 17.1442 53° Northeast  Level Estimated
09:02AM 57.6809 17.2996 53° Northeast  Level Estimated
09:03AM 57.7435 17.4556 53° Northeast  Level Estimated
09:04AM 57.8059 17.6121 53° Northeast  Level Estimated
09:05AM 57.8681 17.7691 53° Northeast  Level Estimated
09:06AM 57.9301 17.9267 53° Northeast  Level Estimated
09:07AM 57.9919 18.0849 54° Northeast  Level Estimated
09:08AM 58.0535 18.2435 54° Northeast  Level Estimated
09:09AM 58.1149 18.4028 54° Northeast  Level Estimated
09:10AM 58.1762 18.5625 54° Northeast  Level Estimated
09:11AM 58.2372 18.7229 54° Northeast  Level Estimated
09:12AM 58.2980 18.8838 54° Northeast  Level Estimated
09:13AM 58.3586 19.0452 54° Northeast  Level Estimated
09:14AM 58.4190 19.2072 54° Northeast  Level Estimated
09:15AM 58.4793 19.3697 55° Northeast  Level Estimated
09:16AM 58.5393 19.5328 55° Northeast  Level Estimated
09:17AM 58.5991 19.6965 55° Northeast  Level Estimated
09:18AM 58.6586 19.8607 55° Northeast  Level Estimated
09:19AM 58.7180 20.0255 55° Northeast  Level Estimated
09:20AM 58.7772 20.1908 55° Northeast  Level Estimated
09:21AM 58.8362 20.3567 55° Northeast  Level Estimated
09:22AM 58.8949 20.5232 56° Northeast  Level Estimated
09:23AM 58.9534 20.6902 56° Northeast  Level Estimated
09:24AM 59.0117 20.8578 56° Northeast  Level Estimated
09:25AM 59.0698 21.0260 56° Northeast  Level Estimated
09:26AM 59.1277 21.1947 56° Northeast  Level Estimated
09:27AM 59.1854 21.3641 56° Northeast  Level Estimated
09:28AM 59.2428 21.5339 56° Northeast  Level Estimated
09:29AM 59.3000 21.7044 57° Northeast  Level Estimated
09:30AM 59.3570 21.8754 57° Northeast  Level Estimated
09:31AM 59.4138 22.0470 57° Northeast  Level Estimated
09:32AM 59.4703 22.2192 57° Northeast  Level Estimated
09:33AM 59.5266 22.3920 57° Northeast  Level Estimated
09:34AM 59.5827 22.5653 57° Northeast  Level Estimated
09:35AM 59.6386 22.7392 58° Northeast  Level Estimated
09:36AM 59.6942 22.9137 58° Northeast  Level Estimated
09:37AM 59.7496 23.0887 58° Northeast  Level Estimated
09:38AM 59.8047 23.2644 58° Northeast  Level Estimated
09:39AM 59.8597 23.4406 58° Northeast  Level Estimated
09:40AM 59.9143 23.6174 58° Northeast  Level Estimated
09:41AM 59.9688 23.7948 58° Northeast  Level Estimated
09:42AM 60.0230 23.9728 59° Northeast  Level Estimated
09:43AM 60.0770 24.1513 59° Northeast  Level Estimated
09:44AM 60.1307 24.3305 59° Northeast  Level Estimated
09:45AM 60.1842 24.5102 59° Northeast  Level Estimated
09:46AM 60.2374 24.6905 59° Northeast  Level Estimated
09:47AM 60.2904 24.8714 59° Northeast  Level Estimated
09:48AM 60.3172 24.9633 60° Northeast  Level Estimated
09:49AM 60.3172 24.9633 North  Level Estimated
09:50AM 60.3172 24.9633 North  Level Estimated
09:51AM 60.3172 24.9633 North  Level Estimated
09:52AM 60.3172 24.9633 North  Level Estimated
09:53AM 60.3172 24.9633 North  Level Estimated
09:54AM 60.3172 24.9633 North  Level Estimated